sensor_id;sensor_type;location;lat;lon;timestamp;P1;durP1;ratioP1;P2;durP2;ratioP2
18338;SDS011;9295;44.484;11.240;2022-07-23T00:01:13;18.70;;;7.87;;
18338;SDS011;9295;44.484;11.240;2022-07-23T00:03:49;13.80;;;6.93;;
18338;SDS011;9295;44.484;11.240;2022-07-23T00:06:18;10.57;;;7.47;;
18338;SDS011;9295;44.484;11.240;2022-07-23T00:08:47;14.87;;;7.27;;
18338;SDS011;9295;44.484;11.240;2022-07-23T00:11:15;9.63;;;6.60;;
18338;SDS011;9295;44.484;11.240;2022-07-23T00:13:44;13.03;;;7.23;;
18338;SDS011;9295;44.484;11.240;2022-07-23T00:16:13;11.50;;;7.10;;
18338;SDS011;9295;44.484;11.240;2022-07-23T00:18:42;14.10;;;6.87;;
18338;SDS011;9295;44.484;11.240;2022-07-23T00:21:12;9.60;;;6.83;;
18338;SDS011;9295;44.484;11.240;2022-07-23T00:23:40;17.13;;;7.30;;
18338;SDS011;9295;44.484;11.240;2022-07-23T00:26:09;8.90;;;6.63;;
18338;SDS011;9295;44.484;11.240;2022-07-23T00:28:38;11.67;;;7.07;;
18338;SDS011;9295;44.484;11.240;2022-07-23T00:31:07;16.03;;;7.63;;
18338;SDS011;9295;44.484;11.240;2022-07-23T00:33:37;11.90;;;6.93;;
18338;SDS011;9295;44.484;11.240;2022-07-23T00:36:09;13.23;;;7.30;;
18338;SDS011;9295;44.484;11.240;2022-07-23T00:38:39;13.97;;;7.17;;
18338;SDS011;9295;44.484;11.240;2022-07-23T00:41:07;12.87;;;7.33;;
18338;SDS011;9295;44.484;11.240;2022-07-23T00:43:36;14.73;;;7.13;;
18338;SDS011;9295;44.484;11.240;2022-07-23T00:46:04;11.43;;;6.97;;
18338;SDS011;9295;44.484;11.240;2022-07-23T00:48:33;12.80;;;7.80;;
18338;SDS011;9295;44.484;11.240;2022-07-23T00:51:04;12.07;;;7.60;;
18338;SDS011;9295;44.484;11.240;2022-07-23T00:53:35;20.00;;;7.53;;
18338;SDS011;9295;44.484;11.240;2022-07-23T00:56:06;10.90;;;7.20;;
18338;SDS011;9295;44.484;11.240;2022-07-23T00:58:35;10.70;;;7.10;;
18338;SDS011;9295;44.484;11.240;2022-07-23T01:01:04;11.10;;;7.03;;
18338;SDS011;9295;44.484;11.240;2022-07-23T01:03:33;12.23;;;7.30;;
18338;SDS011;9295;44.484;11.240;2022-07-23T01:06:02;11.40;;;6.87;;
18338;SDS011;9295;44.484;11.240;2022-07-23T01:08:31;11.40;;;6.83;;
18338;SDS011;9295;44.484;11.240;2022-07-23T01:11:00;16.00;;;7.17;;
18338;SDS011;9295;44.484;11.240;2022-07-23T01:13:30;16.47;;;8.30;;
18338;SDS011;9295;44.484;11.240;2022-07-23T01:15:59;15.37;;;7.80;;
18338;SDS011;9295;44.484;11.240;2022-07-23T01:18:28;11.03;;;7.47;;
18338;SDS011;9295;44.484;11.240;2022-07-23T01:20:57;11.00;;;8.57;;
18338;SDS011;9295;44.484;11.240;2022-07-23T01:23:27;12.27;;;7.80;;
18338;SDS011;9295;44.484;11.240;2022-07-23T01:25:59;10.37;;;6.50;;
18338;SDS011;9295;44.484;11.240;2022-07-23T01:28:28;14.60;;;6.37;;
18338;SDS011;9295;44.484;11.240;2022-07-23T01:30:59;14.40;;;6.80;;
18338;SDS011;9295;44.484;11.240;2022-07-23T01:33:34;13.77;;;7.27;;
18338;SDS011;9295;44.484;11.240;2022-07-23T01:36:03;11.53;;;6.60;;
18338;SDS011;9295;44.484;11.240;2022-07-23T01:38:33;13.00;;;8.90;;
18338;SDS011;9295;44.484;11.240;2022-07-23T01:41:02;10.90;;;7.73;;
18338;SDS011;9295;44.484;11.240;2022-07-23T01:43:32;12.33;;;8.70;;
18338;SDS011;9295;44.484;11.240;2022-07-23T01:46:01;20.17;;;8.60;;
18338;SDS011;9295;44.484;11.240;2022-07-23T01:48:37;8.93;;;7.27;;
18338;SDS011;9295;44.484;11.240;2022-07-23T01:51:35;13.83;;;7.50;;
18338;SDS011;9295;44.484;11.240;2022-07-23T01:54:26;17.20;;;8.10;;
18338;SDS011;9295;44.484;11.240;2022-07-23T01:56:55;12.33;;;7.77;;
18338;SDS011;9295;44.484;11.240;2022-07-23T01:59:27;13.40;;;7.77;;
18338;SDS011;9295;44.484;11.240;2022-07-23T02:01:56;12.43;;;8.10;;
18338;SDS011;9295;44.484;11.240;2022-07-23T02:04:25;14.13;;;8.23;;
18338;SDS011;9295;44.484;11.240;2022-07-23T02:06:54;13.43;;;8.43;;
18338;SDS011;9295;44.484;11.240;2022-07-23T02:09:29;14.13;;;8.57;;
18338;SDS011;9295;44.484;11.240;2022-07-23T02:11:58;11.00;;;8.10;;
18338;SDS011;9295;44.484;11.240;2022-07-23T02:14:27;11.43;;;7.43;;
18338;SDS011;9295;44.484;11.240;2022-07-23T02:16:55;13.50;;;7.87;;
18338;SDS011;9295;44.484;11.240;2022-07-23T02:19:24;13.83;;;7.27;;
18338;SDS011;9295;44.484;11.240;2022-07-23T02:21:54;9.40;;;6.83;;
18338;SDS011;9295;44.484;11.240;2022-07-23T02:24:24;9.03;;;7.00;;
18338;SDS011;9295;44.484;11.240;2022-07-23T02:26:54;10.17;;;7.07;;
18338;SDS011;9295;44.484;11.240;2022-07-23T02:29:22;19.03;;;8.00;;
18338;SDS011;9295;44.484;11.240;2022-07-23T02:31:53;9.47;;;7.60;;
18338;SDS011;9295;44.484;11.240;2022-07-23T02:34:22;10.73;;;7.43;;
18338;SDS011;9295;44.484;11.240;2022-07-23T02:36:53;16.00;;;7.40;;
18338;SDS011;9295;44.484;11.240;2022-07-23T02:39:23;10.00;;;7.63;;
18338;SDS011;9295;44.484;11.240;2022-07-23T02:41:56;13.33;;;7.37;;
18338;SDS011;9295;44.484;11.240;2022-07-23T02:44:24;22.07;;;8.37;;
18338;SDS011;9295;44.484;11.240;2022-07-23T02:46:53;10.80;;;7.50;;
18338;SDS011;9295;44.484;11.240;2022-07-23T02:49:22;11.47;;;8.10;;
18338;SDS011;9295;44.484;11.240;2022-07-23T02:51:51;11.77;;;7.40;;
18338;SDS011;9295;44.484;11.240;2022-07-23T02:54:20;17.13;;;7.50;;
18338;SDS011;9295;44.484;11.240;2022-07-23T02:56:51;10.03;;;8.00;;
18338;SDS011;9295;44.484;11.240;2022-07-23T02:59:21;12.23;;;7.13;;
18338;SDS011;9295;44.484;11.240;2022-07-23T03:01:50;14.70;;;8.37;;
18338;SDS011;9295;44.484;11.240;2022-07-23T03:04:19;11.30;;;7.87;;
18338;SDS011;9295;44.484;11.240;2022-07-23T03:06:47;10.20;;;7.43;;
18338;SDS011;9295;44.484;11.240;2022-07-23T03:09:17;12.40;;;7.50;;
18338;SDS011;9295;44.484;11.240;2022-07-23T03:11:46;15.17;;;8.03;;
18338;SDS011;9295;44.484;11.240;2022-07-23T03:14:16;17.20;;;7.87;;
18338;SDS011;9295;44.484;11.240;2022-07-23T03:16:47;15.43;;;7.83;;
18338;SDS011;9295;44.484;11.240;2022-07-23T03:19:21;13.57;;;7.43;;
18338;SDS011;9295;44.484;11.240;2022-07-23T03:21:49;13.33;;;8.63;;
18338;SDS011;9295;44.484;11.240;2022-07-23T03:24:18;11.40;;;7.40;;
18338;SDS011;9295;44.484;11.240;2022-07-23T03:26:49;10.90;;;7.50;;
18338;SDS011;9295;44.484;11.240;2022-07-23T03:29:19;11.20;;;7.47;;
18338;SDS011;9295;44.484;11.240;2022-07-23T03:31:48;11.00;;;7.37;;
18338;SDS011;9295;44.484;11.240;2022-07-23T03:34:17;11.30;;;7.20;;
18338;SDS011;9295;44.484;11.240;2022-07-23T03:36:46;12.57;;;7.80;;
18338;SDS011;9295;44.484;11.240;2022-07-23T03:39:15;14.43;;;8.03;;
18338;SDS011;9295;44.484;11.240;2022-07-23T03:41:43;14.67;;;8.07;;
18338;SDS011;9295;44.484;11.240;2022-07-23T03:44:12;12.13;;;7.90;;
18338;SDS011;9295;44.484;11.240;2022-07-23T03:46:43;15.60;;;8.20;;
18338;SDS011;9295;44.484;11.240;2022-07-23T03:49:12;11.57;;;7.93;;
18338;SDS011;9295;44.484;11.240;2022-07-23T03:51:40;15.90;;;7.90;;
18338;SDS011;9295;44.484;11.240;2022-07-23T03:54:09;10.53;;;7.30;;
18338;SDS011;9295;44.484;11.240;2022-07-23T03:56:38;14.73;;;7.53;;
18338;SDS011;9295;44.484;11.240;2022-07-23T03:59:07;12.43;;;7.73;;
18338;SDS011;9295;44.484;11.240;2022-07-23T04:01:36;9.03;;;7.00;;
18338;SDS011;9295;44.484;11.240;2022-07-23T04:04:06;11.60;;;7.17;;
18338;SDS011;9295;44.484;11.240;2022-07-23T04:06:37;13.23;;;6.70;;
18338;SDS011;9295;44.484;11.240;2022-07-23T04:09:05;13.83;;;8.10;;
18338;SDS011;9295;44.484;11.240;2022-07-23T04:11:34;10.07;;;7.40;;
18338;SDS011;9295;44.484;11.240;2022-07-23T04:14:03;10.60;;;7.00;;
18338;SDS011;9295;44.484;11.240;2022-07-23T04:16:31;15.63;;;7.40;;
18338;SDS011;9295;44.484;11.240;2022-07-23T04:19:01;18.90;;;7.83;;
18338;SDS011;9295;44.484;11.240;2022-07-23T04:21:41;10.67;;;7.30;;
18338;SDS011;9295;44.484;11.240;2022-07-23T04:24:10;13.70;;;8.07;;
18338;SDS011;9295;44.484;11.240;2022-07-23T04:26:39;9.77;;;7.70;;
18338;SDS011;9295;44.484;11.240;2022-07-23T04:29:08;17.67;;;7.30;;
18338;SDS011;9295;44.484;11.240;2022-07-23T04:31:37;12.53;;;7.70;;
18338;SDS011;9295;44.484;11.240;2022-07-23T04:34:06;14.53;;;8.03;;
18338;SDS011;9295;44.484;11.240;2022-07-23T04:36:35;11.93;;;7.87;;
18338;SDS011;9295;44.484;11.240;2022-07-23T04:39:05;14.53;;;7.50;;
18338;SDS011;9295;44.484;11.240;2022-07-23T04:41:34;12.53;;;7.27;;
18338;SDS011;9295;44.484;11.240;2022-07-23T04:44:03;11.60;;;7.60;;
18338;SDS011;9295;44.484;11.240;2022-07-23T04:46:34;15.13;;;7.23;;
18338;SDS011;9295;44.484;11.240;2022-07-23T04:49:05;14.67;;;8.23;;
18338;SDS011;9295;44.484;11.240;2022-07-23T04:51:35;13.37;;;7.40;;
18338;SDS011;9295;44.484;11.240;2022-07-23T04:54:04;11.90;;;7.70;;
18338;SDS011;9295;44.484;11.240;2022-07-23T04:56:35;11.63;;;7.07;;
18338;SDS011;9295;44.484;11.240;2022-07-23T04:59:04;14.40;;;7.83;;
18338;SDS011;9295;44.484;11.240;2022-07-23T05:01:33;14.10;;;7.50;;
18338;SDS011;9295;44.484;11.240;2022-07-23T05:04:02;11.70;;;6.90;;
18338;SDS011;9295;44.484;11.240;2022-07-23T05:06:34;11.80;;;7.53;;
18338;SDS011;9295;44.484;11.240;2022-07-23T05:09:02;13.30;;;7.50;;
18338;SDS011;9295;44.484;11.240;2022-07-23T05:11:35;18.57;;;8.80;;
18338;SDS011;9295;44.484;11.240;2022-07-23T05:14:07;17.03;;;8.20;;
18338;SDS011;9295;44.484;11.240;2022-07-23T05:16:35;9.40;;;8.07;;
18338;SDS011;9295;44.484;11.240;2022-07-23T05:19:10;12.77;;;8.30;;
18338;SDS011;9295;44.484;11.240;2022-07-23T05:21:39;15.60;;;8.37;;
18338;SDS011;9295;44.484;11.240;2022-07-23T05:24:11;15.83;;;7.83;;
18338;SDS011;9295;44.484;11.240;2022-07-23T05:26:41;12.00;;;8.50;;
18338;SDS011;9295;44.484;11.240;2022-07-23T05:29:13;15.93;;;7.40;;
18338;SDS011;9295;44.484;11.240;2022-07-23T05:31:42;12.63;;;8.33;;
18338;SDS011;9295;44.484;11.240;2022-07-23T05:34:11;12.37;;;8.27;;
18338;SDS011;9295;44.484;11.240;2022-07-23T05:36:44;11.00;;;7.60;;
18338;SDS011;9295;44.484;11.240;2022-07-23T05:39:13;12.17;;;7.53;;
18338;SDS011;9295;44.484;11.240;2022-07-23T05:41:44;16.40;;;8.30;;
18338;SDS011;9295;44.484;11.240;2022-07-23T05:44:13;14.77;;;7.73;;
18338;SDS011;9295;44.484;11.240;2022-07-23T05:46:43;15.73;;;7.10;;
18338;SDS011;9295;44.484;11.240;2022-07-23T05:49:17;10.93;;;7.23;;
18338;SDS011;9295;44.484;11.240;2022-07-23T05:52:09;13.27;;;8.17;;
18338;SDS011;9295;44.484;11.240;2022-07-23T05:54:56;12.87;;;6.63;;
18338;SDS011;9295;44.484;11.240;2022-07-23T05:57:26;18.77;;;7.20;;
18338;SDS011;9295;44.484;11.240;2022-07-23T05:59:55;19.67;;;6.93;;
18338;SDS011;9295;44.484;11.240;2022-07-23T06:02:25;20.80;;;7.30;;
18338;SDS011;9295;44.484;11.240;2022-07-23T06:04:55;12.07;;;6.43;;
18338;SDS011;9295;44.484;11.240;2022-07-23T06:07:30;13.80;;;6.53;;
18338;SDS011;9295;44.484;11.240;2022-07-23T06:09:58;13.93;;;7.07;;
18338;SDS011;9295;44.484;11.240;2022-07-23T06:12:29;14.07;;;6.93;;
18338;SDS011;9295;44.484;11.240;2022-07-23T06:14:58;20.97;;;7.07;;
18338;SDS011;9295;44.484;11.240;2022-07-23T06:17:27;19.80;;;7.10;;
18338;SDS011;9295;44.484;11.240;2022-07-23T06:19:59;11.60;;;7.13;;
18338;SDS011;9295;44.484;11.240;2022-07-23T06:22:27;20.93;;;6.20;;
18338;SDS011;9295;44.484;11.240;2022-07-23T06:24:58;12.50;;;6.40;;
18338;SDS011;9295;44.484;11.240;2022-07-23T06:27:29;14.05;;;6.68;;
18338;SDS011;9295;44.484;11.240;2022-07-23T06:30:01;19.17;;;6.88;;
18338;SDS011;9295;44.484;11.240;2022-07-23T06:32:29;14.88;;;6.72;;
18338;SDS011;9295;44.484;11.240;2022-07-23T06:34:58;10.35;;;7.05;;
18338;SDS011;9295;44.484;11.240;2022-07-23T06:37:27;11.38;;;6.20;;
18338;SDS011;9295;44.484;11.240;2022-07-23T06:39:56;10.85;;;6.00;;
18338;SDS011;9295;44.484;11.240;2022-07-23T06:42:29;12.65;;;6.72;;
18338;SDS011;9295;44.484;11.240;2022-07-23T06:44:58;14.82;;;6.32;;
18338;SDS011;9295;44.484;11.240;2022-07-23T06:47:28;16.00;;;6.65;;
18338;SDS011;9295;44.484;11.240;2022-07-23T06:49:56;13.45;;;6.35;;
18338;SDS011;9295;44.484;11.240;2022-07-23T06:52:25;15.30;;;6.30;;
18338;SDS011;9295;44.484;11.240;2022-07-23T06:54:54;11.32;;;6.88;;
18338;SDS011;9295;44.484;11.240;2022-07-23T06:57:22;16.27;;;7.10;;
18338;SDS011;9295;44.484;11.240;2022-07-23T06:59:55;8.60;;;5.97;;
18338;SDS011;9295;44.484;11.240;2022-07-23T07:02:24;16.17;;;6.60;;
18338;SDS011;9295;44.484;11.240;2022-07-23T07:04:56;10.63;;;6.82;;
18338;SDS011;9295;44.484;11.240;2022-07-23T07:07:31;11.63;;;5.75;;
18338;SDS011;9295;44.484;11.240;2022-07-23T07:09:59;10.25;;;5.93;;
18338;SDS011;9295;44.484;11.240;2022-07-23T07:12:28;14.85;;;5.75;;
18338;SDS011;9295;44.484;11.240;2022-07-23T07:14:58;12.73;;;6.53;;
18338;SDS011;9295;44.484;11.240;2022-07-23T07:17:27;21.45;;;7.95;;
18338;SDS011;9295;44.484;11.240;2022-07-23T07:19:56;17.05;;;8.05;;
18338;SDS011;9295;44.484;11.240;2022-07-23T07:22:24;18.90;;;8.35;;
18338;SDS011;9295;44.484;11.240;2022-07-23T07:24:53;16.65;;;6.47;;
18338;SDS011;9295;44.484;11.240;2022-07-23T07:27:21;12.25;;;7.13;;
18338;SDS011;9295;44.484;11.240;2022-07-23T07:29:50;19.20;;;7.22;;
18338;SDS011;9295;44.484;11.240;2022-07-23T07:32:21;14.32;;;8.23;;
18338;SDS011;9295;44.484;11.240;2022-07-23T07:35:10;17.77;;;7.40;;
18338;SDS011;9295;44.484;11.240;2022-07-23T07:37:38;21.70;;;7.28;;
18338;SDS011;9295;44.484;11.240;2022-07-23T07:40:07;17.63;;;6.95;;
18338;SDS011;9295;44.484;11.240;2022-07-23T07:42:43;9.88;;;5.90;;
18338;SDS011;9295;44.484;11.240;2022-07-23T07:45:12;13.10;;;6.50;;
18338;SDS011;9295;44.484;11.240;2022-07-23T07:47:43;11.13;;;5.88;;
18338;SDS011;9295;44.484;11.240;2022-07-23T07:50:12;11.70;;;6.43;;
18338;SDS011;9295;44.484;11.240;2022-07-23T07:52:44;14.10;;;7.50;;
18338;SDS011;9295;44.484;11.240;2022-07-23T07:55:13;12.90;;;6.47;;
18338;SDS011;9295;44.484;11.240;2022-07-23T07:57:43;10.17;;;6.60;;
18338;SDS011;9295;44.484;11.240;2022-07-23T08:00:15;13.80;;;6.30;;
18338;SDS011;9295;44.484;11.240;2022-07-23T08:02:48;11.43;;;5.63;;
18338;SDS011;9295;44.484;11.240;2022-07-23T08:05:18;13.40;;;6.77;;
18338;SDS011;9295;44.484;11.240;2022-07-23T08:07:53;15.30;;;7.07;;
18338;SDS011;9295;44.484;11.240;2022-07-23T08:10:25;13.90;;;6.57;;
18338;SDS011;9295;44.484;11.240;2022-07-23T08:12:55;16.03;;;7.03;;
18338;SDS011;9295;44.484;11.240;2022-07-23T08:15:25;15.93;;;6.60;;
18338;SDS011;9295;44.484;11.240;2022-07-23T08:17:57;13.50;;;7.17;;
18338;SDS011;9295;44.484;11.240;2022-07-23T08:20:26;12.47;;;6.83;;
18338;SDS011;9295;44.484;11.240;2022-07-23T08:22:56;19.37;;;7.70;;
18338;SDS011;9295;44.484;11.240;2022-07-23T08:25:25;14.23;;;6.83;;
18338;SDS011;9295;44.484;11.240;2022-07-23T08:27:56;11.63;;;7.00;;
18338;SDS011;9295;44.484;11.240;2022-07-23T08:30:25;9.80;;;6.87;;
18338;SDS011;9295;44.484;11.240;2022-07-23T08:32:57;9.30;;;6.20;;
18338;SDS011;9295;44.484;11.240;2022-07-23T08:35:28;12.03;;;6.23;;
18338;SDS011;9295;44.484;11.240;2022-07-23T08:37:57;11.10;;;6.17;;
18338;SDS011;9295;44.484;11.240;2022-07-23T08:40:28;13.63;;;5.80;;
18338;SDS011;9295;44.484;11.240;2022-07-23T08:42:58;17.20;;;6.60;;
18338;SDS011;9295;44.484;11.240;2022-07-23T08:45:27;9.80;;;6.37;;
18338;SDS011;9295;44.484;11.240;2022-07-23T08:47:57;16.17;;;6.23;;
18338;SDS011;9295;44.484;11.240;2022-07-23T08:50:29;16.63;;;6.00;;
18338;SDS011;9295;44.484;11.240;2022-07-23T08:53:00;8.40;;;5.17;;
18338;SDS011;9295;44.484;11.240;2022-07-23T08:55:30;9.93;;;6.13;;
18338;SDS011;9295;44.484;11.240;2022-07-23T08:57:58;7.67;;;5.43;;
18338;SDS011;9295;44.484;11.240;2022-07-23T09:00:27;14.87;;;6.53;;
18338;SDS011;9295;44.484;11.240;2022-07-23T09:02:58;9.10;;;5.70;;
18338;SDS011;9295;44.484;11.240;2022-07-23T09:05:26;12.23;;;5.67;;
18338;SDS011;9295;44.484;11.240;2022-07-23T09:08:04;15.10;;;5.30;;
18338;SDS011;9295;44.484;11.240;2022-07-23T09:10:42;15.03;;;6.00;;
18338;SDS011;9295;44.484;11.240;2022-07-23T09:13:26;10.03;;;6.07;;
18338;SDS011;9295;44.484;11.240;2022-07-23T09:16:00;10.30;;;5.37;;
18338;SDS011;9295;44.484;11.240;2022-07-23T09:18:33;12.33;;;6.17;;
18338;SDS011;9295;44.484;11.240;2022-07-23T09:21:10;12.00;;;5.50;;
18338;SDS011;9295;44.484;11.240;2022-07-23T09:23:44;8.93;;;5.43;;
18338;SDS011;9295;44.484;11.240;2022-07-23T09:26:18;10.77;;;5.33;;
18338;SDS011;9295;44.484;11.240;2022-07-23T09:28:52;13.10;;;4.97;;
18338;SDS011;9295;44.484;11.240;2022-07-23T09:31:22;10.50;;;5.50;;
18338;SDS011;9295;44.484;11.240;2022-07-23T09:34:01;10.57;;;5.23;;
18338;SDS011;9295;44.484;11.240;2022-07-23T09:36:35;15.90;;;5.17;;
18338;SDS011;9295;44.484;11.240;2022-07-23T09:39:04;15.23;;;4.80;;
18338;SDS011;9295;44.484;11.240;2022-07-23T09:41:41;13.80;;;5.47;;
18338;SDS011;9295;44.484;11.240;2022-07-23T09:44:12;11.47;;;5.10;;
18338;SDS011;9295;44.484;11.240;2022-07-23T09:46:44;8.00;;;5.03;;
18338;SDS011;9295;44.484;11.240;2022-07-23T09:49:17;11.70;;;4.90;;
18338;SDS011;9295;44.484;11.240;2022-07-23T09:51:48;14.00;;;4.63;;
18338;SDS011;9295;44.484;11.240;2022-07-23T09:54:24;12.93;;;5.03;;
18338;SDS011;9295;44.484;11.240;2022-07-23T09:56:58;12.90;;;5.30;;
18338;SDS011;9295;44.484;11.240;2022-07-23T09:59:28;7.80;;;5.00;;
18338;SDS011;9295;44.484;11.240;2022-07-23T10:02:00;16.60;;;5.23;;
18338;SDS011;9295;44.484;11.240;2022-07-23T10:04:36;9.90;;;5.00;;
18338;SDS011;9295;44.484;11.240;2022-07-23T10:07:25;10.80;;;5.10;;
18338;SDS011;9295;44.484;11.240;2022-07-23T10:10:14;8.80;;;5.00;;
18338;SDS011;9295;44.484;11.240;2022-07-23T10:12:44;10.10;;;5.50;;
18338;SDS011;9295;44.484;11.240;2022-07-23T10:15:41;13.53;;;5.70;;
18338;SDS011;9295;44.484;11.240;2022-07-23T10:18:10;8.50;;;5.10;;
18338;SDS011;9295;44.484;11.240;2022-07-23T10:20:41;8.83;;;5.20;;
18338;SDS011;9295;44.484;11.240;2022-07-23T10:23:10;11.43;;;5.40;;
18338;SDS011;9295;44.484;11.240;2022-07-23T10:25:49;8.40;;;4.93;;
18338;SDS011;9295;44.484;11.240;2022-07-23T10:28:31;22.40;;;6.13;;
18338;SDS011;9295;44.484;11.240;2022-07-23T10:31:17;7.83;;;5.37;;
18338;SDS011;9295;44.484;11.240;2022-07-23T10:34:18;11.47;;;5.40;;
18338;SDS011;9295;44.484;11.240;2022-07-23T10:36:56;9.17;;;4.73;;
18338;SDS011;9295;44.484;11.240;2022-07-23T10:39:30;9.53;;;5.47;;
18338;SDS011;9295;44.484;11.240;2022-07-23T10:42:07;12.40;;;5.63;;
18338;SDS011;9295;44.484;11.240;2022-07-23T10:44:40;8.60;;;5.20;;
18338;SDS011;9295;44.484;11.240;2022-07-23T10:47:10;13.60;;;5.10;;
18338;SDS011;9295;44.484;11.240;2022-07-23T10:55:48;14.77;;;5.33;;
18338;SDS011;9295;44.484;11.240;2022-07-23T10:58:23;14.13;;;5.50;;
18338;SDS011;9295;44.484;11.240;2022-07-23T11:01:32;13.07;;;6.13;;
18338;SDS011;9295;44.484;11.240;2022-07-23T11:04:03;10.33;;;5.60;;
18338;SDS011;9295;44.484;11.240;2022-07-23T11:09:48;13.60;;;6.07;;
18338;SDS011;9295;44.484;11.240;2022-07-23T11:12:34;11.43;;;6.07;;
18338;SDS011;9295;44.484;11.240;2022-07-23T11:15:04;17.47;;;5.87;;
18338;SDS011;9295;44.484;11.240;2022-07-23T11:17:35;7.47;;;5.37;;
18338;SDS011;9295;44.484;11.240;2022-07-23T11:22:55;9.90;;;5.60;;
18338;SDS011;9295;44.484;11.240;2022-07-23T11:25:30;11.40;;;5.87;;
18338;SDS011;9295;44.484;11.240;2022-07-23T11:28:14;9.73;;;5.70;;
18338;SDS011;9295;44.484;11.240;2022-07-23T11:30:45;9.67;;;5.67;;
18338;SDS011;9295;44.484;11.240;2022-07-23T11:33:19;10.90;;;6.43;;
18338;SDS011;9295;44.484;11.240;2022-07-23T11:35:49;9.37;;;6.17;;
18338;SDS011;9295;44.484;11.240;2022-07-23T11:38:30;9.80;;;6.30;;
18338;SDS011;9295;44.484;11.240;2022-07-23T11:41:02;10.60;;;5.77;;
18338;SDS011;9295;44.484;11.240;2022-07-23T11:43:31;12.17;;;6.17;;
18338;SDS011;9295;44.484;11.240;2022-07-23T11:46:00;11.60;;;5.73;;
18338;SDS011;9295;44.484;11.240;2022-07-23T11:48:29;10.93;;;5.83;;
18338;SDS011;9295;44.484;11.240;2022-07-23T11:51:06;11.57;;;5.73;;
18338;SDS011;9295;44.484;11.240;2022-07-23T11:53:36;9.87;;;5.63;;
18338;SDS011;9295;44.484;11.240;2022-07-23T11:56:06;8.97;;;5.97;;
18338;SDS011;9295;44.484;11.240;2022-07-23T11:58:38;11.97;;;6.17;;
18338;SDS011;9295;44.484;11.240;2022-07-23T12:01:07;10.17;;;5.73;;
18338;SDS011;9295;44.484;11.240;2022-07-23T12:03:48;15.27;;;6.03;;
18338;SDS011;9295;44.484;11.240;2022-07-23T12:06:18;8.63;;;5.47;;
18338;SDS011;9295;44.484;11.240;2022-07-23T12:08:46;9.23;;;5.30;;
18338;SDS011;9295;44.484;11.240;2022-07-23T12:11:17;10.80;;;6.30;;
18338;SDS011;9295;44.484;11.240;2022-07-23T12:13:55;9.27;;;5.30;;
18338;SDS011;9295;44.484;11.240;2022-07-23T12:16:24;8.40;;;5.07;;
18338;SDS011;9295;44.484;11.240;2022-07-23T12:18:53;9.20;;;6.00;;
18338;SDS011;9295;44.484;11.240;2022-07-23T12:21:22;7.83;;;5.90;;
18338;SDS011;9295;44.484;11.240;2022-07-23T12:23:51;12.43;;;5.00;;
18338;SDS011;9295;44.484;11.240;2022-07-23T12:26:21;13.83;;;5.57;;
18338;SDS011;9295;44.484;11.240;2022-07-23T12:28:51;16.50;;;6.60;;
18338;SDS011;9295;44.484;11.240;2022-07-23T12:31:25;10.48;;;6.15;;
18338;SDS011;9295;44.484;11.240;2022-07-23T12:33:54;12.40;;;6.33;;
18338;SDS011;9295;44.484;11.240;2022-07-23T12:36:36;10.00;;;5.50;;
18338;SDS011;9295;44.484;11.240;2022-07-23T12:39:06;8.77;;;6.03;;
18338;SDS011;9295;44.484;11.240;2022-07-23T12:41:52;16.80;;;6.07;;
18338;SDS011;9295;44.484;11.240;2022-07-23T12:44:21;10.43;;;6.63;;
18338;SDS011;9295;44.484;11.240;2022-07-23T12:46:51;10.70;;;5.63;;
18338;SDS011;9295;44.484;11.240;2022-07-23T12:49:25;10.50;;;6.13;;
18338;SDS011;9295;44.484;11.240;2022-07-23T12:51:56;15.57;;;6.10;;
18338;SDS011;9295;44.484;11.240;2022-07-23T12:54:27;12.87;;;5.80;;
18338;SDS011;9295;44.484;11.240;2022-07-23T12:56:58;12.70;;;6.30;;
18338;SDS011;9295;44.484;11.240;2022-07-23T12:59:26;10.73;;;5.80;;
18338;SDS011;9295;44.484;11.240;2022-07-23T13:01:59;7.17;;;5.40;;
18338;SDS011;9295;44.484;11.240;2022-07-23T13:04:29;10.37;;;5.70;;
18338;SDS011;9295;44.484;11.240;2022-07-23T13:07:01;10.00;;;6.17;;
18338;SDS011;9295;44.484;11.240;2022-07-23T13:09:32;10.23;;;6.00;;
18338;SDS011;9295;44.484;11.240;2022-07-23T13:12:10;16.20;;;6.77;;
18338;SDS011;9295;44.484;11.240;2022-07-23T13:14:39;16.90;;;6.70;;
18338;SDS011;9295;44.484;11.240;2022-07-23T13:17:08;19.80;;;6.67;;
18338;SDS011;9295;44.484;11.240;2022-07-23T13:19:36;9.80;;;6.10;;
18338;SDS011;9295;44.484;11.240;2022-07-23T13:22:05;12.53;;;5.73;;
18338;SDS011;9295;44.484;11.240;2022-07-23T13:24:35;11.37;;;6.40;;
18338;SDS011;9295;44.484;11.240;2022-07-23T13:27:05;10.30;;;5.53;;
18338;SDS011;9295;44.484;11.240;2022-07-23T13:29:40;11.67;;;5.73;;
18338;SDS011;9295;44.484;11.240;2022-07-23T13:32:11;8.50;;;5.57;;
18338;SDS011;9295;44.484;11.240;2022-07-23T13:34:40;11.87;;;5.80;;
18338;SDS011;9295;44.484;11.240;2022-07-23T13:37:10;11.40;;;5.80;;
18338;SDS011;9295;44.484;11.240;2022-07-23T13:39:40;10.73;;;6.00;;
18338;SDS011;9295;44.484;11.240;2022-07-23T13:42:09;9.77;;;5.73;;
18338;SDS011;9295;44.484;11.240;2022-07-23T13:44:39;12.53;;;6.37;;
18338;SDS011;9295;44.484;11.240;2022-07-23T13:47:10;12.20;;;5.70;;
18338;SDS011;9295;44.484;11.240;2022-07-23T13:49:40;15.90;;;6.00;;
18338;SDS011;9295;44.484;11.240;2022-07-23T13:52:08;7.00;;;5.63;;
18338;SDS011;9295;44.484;11.240;2022-07-23T13:54:38;12.30;;;6.10;;
18338;SDS011;9295;44.484;11.240;2022-07-23T13:57:06;9.37;;;6.10;;
18338;SDS011;9295;44.484;11.240;2022-07-23T13:59:35;7.80;;;5.60;;
18338;SDS011;9295;44.484;11.240;2022-07-23T14:02:06;7.97;;;5.67;;
18338;SDS011;9295;44.484;11.240;2022-07-23T14:04:51;18.37;;;6.40;;
18338;SDS011;9295;44.484;11.240;2022-07-23T14:07:20;9.97;;;6.20;;
18338;SDS011;9295;44.484;11.240;2022-07-23T14:09:49;12.63;;;6.00;;
18338;SDS011;9295;44.484;11.240;2022-07-23T14:12:18;9.80;;;5.70;;
18338;SDS011;9295;44.484;11.240;2022-07-23T14:14:49;14.33;;;6.10;;
18338;SDS011;9295;44.484;11.240;2022-07-23T14:17:21;10.10;;;5.63;;
18338;SDS011;9295;44.484;11.240;2022-07-23T14:19:52;11.47;;;6.20;;
18338;SDS011;9295;44.484;11.240;2022-07-23T14:22:21;10.30;;;5.93;;
18338;SDS011;9295;44.484;11.240;2022-07-23T14:24:50;9.07;;;5.80;;
18338;SDS011;9295;44.484;11.240;2022-07-23T14:27:18;10.93;;;7.20;;
18338;SDS011;9295;44.484;11.240;2022-07-23T14:29:47;9.70;;;5.70;;
18338;SDS011;9295;44.484;11.240;2022-07-23T14:32:16;10.23;;;6.00;;
18338;SDS011;9295;44.484;11.240;2022-07-23T14:34:46;12.43;;;6.60;;
18338;SDS011;9295;44.484;11.240;2022-07-23T14:37:15;8.60;;;5.65;;
18338;SDS011;9295;44.484;11.240;2022-07-23T14:39:47;15.90;;;5.88;;
18338;SDS011;9295;44.484;11.240;2022-07-23T14:42:16;13.00;;;6.53;;
18338;SDS011;9295;44.484;11.240;2022-07-23T14:44:44;12.03;;;6.40;;
18338;SDS011;9295;44.484;11.240;2022-07-23T14:47:13;9.10;;;5.60;;
18338;SDS011;9295;44.484;11.240;2022-07-23T14:49:48;15.23;;;6.17;;
18338;SDS011;9295;44.484;11.240;2022-07-23T14:52:18;15.20;;;6.70;;
18338;SDS011;9295;44.484;11.240;2022-07-23T14:54:47;7.50;;;6.00;;
18338;SDS011;9295;44.484;11.240;2022-07-23T14:57:16;17.73;;;6.97;;
18338;SDS011;9295;44.484;11.240;2022-07-23T14:59:52;13.80;;;5.83;;
18338;SDS011;9295;44.484;11.240;2022-07-23T15:02:21;10.83;;;6.17;;
18338;SDS011;9295;44.484;11.240;2022-07-23T15:04:52;9.63;;;6.00;;
18338;SDS011;9295;44.484;11.240;2022-07-23T15:07:21;14.20;;;5.83;;
18338;SDS011;9295;44.484;11.240;2022-07-23T15:09:53;10.45;;;5.72;;
18338;SDS011;9295;44.484;11.240;2022-07-23T15:12:21;16.27;;;5.70;;